Météo Laillé La Rouesnais (35890),Prévisions Météo 3 et 7 jours Observations temps réel,historique,bilan climatique
Photo de Laille
.//Meteo-Laille_Data_Jour.txt https://tgftp.nws.noaa.gov/data/observations/metar/stations/LFRN.TXT2022/05/22 08:00 LFRN 220800Z AUTO 01005KT 330V040 CAVOK 17/13 Q1012 NOSIG
Rennes
Ciel dégagé
Metar : 2022/05/22 08:00 LFRN 220800Z AUTO 01005KT 330V040 CAVOK 17/13 Q1012 NOSIG
Couverture nuageuse :
Pression de 29.88 inHg (1012 hPa)
Humidité : 77%
Température : 63°F (17°C)
Vent de N at 6 mph (9 km/h)
Visibilité : greater than 7 miles (10 km)
Nantes
couvert
Metar : 2022/05/22 08:00 LFRS 220800Z AUTO 03004KT 360V080 9999 FEW030 OVC110 17/14 Q1011 TEMPO 06015G25KT
Couverture nuageuse : Few Clouds 3000 ft Overcast 11000 ft
Traduc : Partly cloudy 700 ft
Pression de 29.85 inHg (1011 hPa)
Humidité : 83%
Température : 63°F (17°C)
Point de rosée : 57°F (14°C)
Vent de NNE at 5 mph (7 km/h)
Visibilité : 6 miles (10 km)
Lannion
Orageux
Metar : 2022/05/22 08:00 LFRO 220800Z AUTO 05004KT 350V090 9999 ///TCU 13/12 Q1014
Couverture nuageuse :
Traduc : Partly cloudy 700 ft
Pression de 29.94 inHg (1014 hPa)
Humidité : 94%
Température : 55°F (13°C)
Point de rosée : 54°F (12°C)
Vent de NE at 5 mph (7 km/h)
Visibilité : 6 miles (10 km)
Dinard
Orageux
Metar : 2022/05/22 08:00 LFRD 220800Z AUTO 04006KT 360V060 9999 ///TCU 16/13 Q1013 BECMG NSC
Couverture nuageuse :
Traduc : Partly cloudy 700 ft
Pression de 29.91 inHg (1013 hPa)
Humidité : 83%
Température : 61°F (16°C)
Point de rosée : 55°F (13°C)
Vent de NE at 7 mph (11 km/h)
Visibilité : 6 miles (10 km)
Brest
Ciel dégagé
Metar : 2022/05/22 08:00 LFRB 220800Z AUTO 04006KT CAVOK 15/11 Q1013 NOSIG
Couverture nuageuse :
Traduc : Partly cloudy 700 ft
Pression de 29.91 inHg (1013 hPa)
Humidité : 77%
Température : 59°F (15°C)
Point de rosée : 52°F (11°C)
Vent de NE at 7 mph (11 km/h)
Visibilité : greater than 7 miles (10 km)
Quimper
Orageux
Metar : 2022/05/22 08:00 LFRQ 220800Z AUTO 03006KT 9999 ///TCU 15/11 Q1013 BECMG NSC
Couverture nuageuse :
Traduc : Partly cloudy 700 ft
Pression de 29.91 inHg (1013 hPa)
Humidité : 77%
Température : 59°F (15°C)
Point de rosée : 52°F (11°C)
Vent de NNE at 7 mph (11 km/h)
Visibilité : 6 miles (10 km)
St Nazaire
Ciel dégagé
Metar : 2022/05/22 08:00 LFRZ 220800Z AUTO 05008KT CAVOK 18/13 Q1011 NOSIG
Couverture nuageuse :
Traduc : Partly cloudy 700 ft
Pression de 29.85 inHg (1011 hPa)
Humidité : 73%
Température : 64°F (18°C)
Point de rosée : 55°F (13°C)
Vent de NE at 9 mph (15 km/h)
Visibilité : greater than 7 miles (10 km)
St Brieuc
Orageux
Metar : 2022/05/22 08:00 LFRT 220800Z AUTO 03005KT 350V050 9999 OVC006/// ///TCU 14/13 Q1014
Couverture nuageuse : Overcast 600 ft
Traduc : Partly cloudy 700 ft
Pression de 29.94 inHg (1014 hPa)
Humidité : 94%
Température : 57°F (14°C)
Point de rosée : 55°F (13°C)
Vent de NNE at 6 mph (9 km/h)
Visibilité : 6 miles (10 km)
Lorient
Orageux
Metar : 2022/05/22 08:00 LFRH 220800Z AUTO 07008KT 9999 ///TCU 17/12 Q1013 BECMG NSC
Couverture nuageuse :
Traduc : Partly cloudy 700 ft
Pression de 29.91 inHg (1013 hPa)
Humidité : 73%
Température : 63°F (17°C)
Point de rosée : 54°F (12°C)
Vent de ENE at 9 mph (15 km/h)
Visibilité : 6 miles (10 km)
Vannes-Meucon
Ciel dégagé
Metar : 2022/05/22 08:00 LFRV 220800Z AUTO 04010KT CAVOK 16/12 Q1012
Couverture nuageuse :
Traduc : Partly cloudy 700 ft
Pression de 29.88 inHg (1012 hPa)
Humidité : 77%
Température : 61°F (16°C)
Point de rosée : 54°F (12°C)
Vent de NE at 12 mph (19 km/h)
Visibilité : greater than 7 miles (10 km)
St Nazaire
Ciel dégagé
Metar : 2022/05/22 08:00 LFRZ 220800Z AUTO 05008KT CAVOK 18/13 Q1011 NOSIG
Couverture nuageuse :
Traduc : Partly cloudy 700 ft
Pression de 29.85 inHg (1011 hPa)
Humidité : 73%
Température : 64°F (18°C)
Point de rosée : 55°F (13°C)
Vent de NE at 9 mph (15 km/h)
Visibilité : greater than 7 miles (10 km)
?>

 


   Weather Underground PWS IBRETAGN39      Weather Underground PWS IBRETAGN39Retour Météo-Laillé adhérent de Météo-Bretagne et d'Infoclimat. Données mises à jour en temps réel via Météolink Climatologie réalisée sous Wswin et GraphWeather.

Affichage prévisions météo de WeatherUnderground via script PHP de Saratoga.

Copyright 2012-2021


compteur